Impacts TAF Board
For situational awareness. Not to be used for flight planning purposes.
IDs:

KBBD - Brady/Curtis Fld, TX, US

Issued at 1120 UTC 15 Jul 2020
Updated at 1256 UTC 15 Jul 2020
Potential Impact None Slight Moderate High
Time1235Z 15/13Z 15/14Z 15/15Z 15/16Z 15/17Z 15/18Z 15/19Z 15/20Z 15/21Z 15/22Z 15/23Z 16/00Z 16/01Z>>
Type OBS PRVL PRVL PRVL PRVL PRVL PRVL PRVL PRVL PRVL PRVL PRVL PRVL PRVL
VIS 10 >6 >6 >6 >6 >6 >6 >6 >6 >6 >6 >6 >6 >6
CIG -- -- -- -- -- -- -- -- -- -- -- -- -- --
Cover CLR SCT SCT SCT SCT SCT SCT SCT SCT SCT SCT SCT SCT SCT
FltCat VFR VFR VFR VFR VFR VFR VFR VFR VFR VFR VFR VFR VFR VFR
WX -- -- -- -- -- -- -- -- -- -- -- -- -- --
WDir 170 170 170 180 180 180 180 180 180 150 150 150 150 150
WSpd 9 11 11 12 12 12 12 12 12 11 11 11 11 11
WGst -- -- -- 20 20 20 20 20 20 -- -- -- -- --
Raw TAF
KBBD 151120Z 1512/1612 17011KT P6SM SCT150
  FM151500 18012G20KT P6SM SCT150
  FM152100 15011KT P6SM SCT150


Raw METAR
KBBD 151235Z AUTO 17009KT 10SM CLR 24/20 A2997 RMK AO2
KBBD 151215Z AUTO 19008KT 10SM CLR 24/20 A2996 RMK AO2
KBBD 151155Z AUTO 19010KT 10SM CLR 24/21 A2994 RMK AO2
KBBD 151135Z AUTO 19009KT 10SM 24/21 A2994 RMK AO2
KBBD 151115Z AUTO 19009G14KT 10SM 25/21 A2993 RMK AO2
KBBD 151055Z AUTO 18011KT 10SM CLR 25/21 A2993 RMK AO2
KBBD 151035Z AUTO 19011G16KT 10SM CLR 25/21 A2992 RMK AO2
KBBD 151015Z AUTO 18010G17KT 10SM CLR 26/21 A2993 RMK AO2
KBBD 150955Z AUTO 19009G16KT 10SM CLR 26/21 A2993 RMK AO2
KBBD 150935Z AUTO 17010G17KT 10SM CLR 26/21 A2992 RMK AO2

METAR Board
Radar Display
Forecast Discussion
For situational awareness. Not to be used for flight planning purposes.